Flight Track Log - Related Links

Times and Time Zones

All times are in EDT time to prevent confusion due to time zone crossing. See the ASQ4930 flight status page for this flight to view local times or setup timezone preferences in your user account.

Time Position Orientation Groundspeed Altitude Reporting Facility
EDT Latitude Longitude Course Direction KTS MPH feet Rate Location/Type
Mon 08:23:27 PM 29.5206 -98.4650 132° Southeast 156 180 1,700  Level Houston Center
Mon 08:24:16 PM 29.4911 -98.4275 75° East 184 212 3,300 2,000 Climbing Houston Center
Mon 08:25:39 PM 29.5125 -98.3333 72° East 239 275 6,100 2,098 Climbing Houston Center
Mon 08:26:39 PM 29.5325 -98.2631 73° East 246 283 8,300 2,200 Climbing Houston Center
Mon 08:27:39 PM 29.5581 -98.1644 72° East 277 319 10,500 2,000 Climbing Houston Center
Mon 08:28:39 PM 29.5833 -98.0753 72° East 306 352 12,300 1,900 Climbing Houston Center
Mon 08:29:39 PM 29.6156 -97.9628 72° East 329 379 14,300 1,700 Climbing Houston Center
Mon 08:30:39 PM 29.6433 -97.8619 84° East 352 405 15,700 1,450 Climbing Houston Center
Mon 08:31:39 PM 29.6558 -97.7242 90° East 376 433 17,200 1,600 Climbing Houston Center
Mon 08:32:39 PM 29.6553 -97.5928 89° East 393 452 18,900 1,600 Climbing Houston Center
Mon 08:33:39 PM 29.6569 -97.4542 90° East 418 481 20,400 1,500 Climbing Houston Center
Mon 08:34:39 PM 29.6569 -97.3108 89° East 429 494 21,900 1,450 Climbing Houston Center
Mon 08:35:39 PM 29.6583 -97.1700 89° East 443 510 23,300 1,400 Climbing Houston Center
Mon 08:36:39 PM 29.6603 -97.0219 92° East 448 516 24,700 1,400 Climbing Houston Center
Mon 08:37:39 PM 29.6556 -96.8736 71° East 458 527 26,100 1,200 Climbing Houston Center
Mon 08:38:39 PM 29.6986 -96.7300 62° Northeast 458 527 27,100 1,000 Climbing Houston Center
Mon 08:39:39 PM 29.7619 -96.5944 40° Northeast 468 539 28,100 1,000 Climbing Houston Center
Mon 08:40:39 PM 29.8636 -96.4964 39° Northeast 462 532 29,100 950 Climbing Houston Center
Mon 08:41:39 PM 29.9672 -96.3981 39° Northeast 462 532 30,000 850 Climbing Houston Center
Mon 08:42:39 PM 30.0750 -96.2975 41° Northeast 473 544 30,800 900 Climbing Houston Center
Mon 08:43:39 PM 30.1786 -96.1942 39° Northeast 483 556 31,800 1,000 Climbing Houston Center
Mon 08:44:39 PM 30.2800 -96.0978 39° Northeast 488 562 32,800 950 Climbing Houston Center
Mon 08:45:39 PM 30.3725 -96.0103 39° Northeast 481 554 33,700 950 Climbing Houston Center
Mon 08:46:39 PM 30.4714 -95.9158 39° Northeast 474 545 34,700 650 Climbing Houston Center
Mon 08:47:39 PM 30.5833 -95.8094 42° Northeast 469 540 35,000 150 Climbing Houston Center
Mon 08:48:39 PM 30.6844 -95.7050 41° Northeast 469 540 35,000  Level Houston Center
Mon 08:49:39 PM 30.7856 -95.6028 39° Northeast 469 540 35,000  Level Houston Center
Mon 08:50:39 PM 30.8908 -95.5031 40° Northeast 474 545 35,000  Level Houston Center
Mon 08:52:58 PM 31.1161 -95.2831 38° Northeast 489 563 35,000  Level Fort Worth Center
Mon 08:53:58 PM 31.2208 -95.1858 40° Northeast 484 557 35,000  Level Fort Worth Center
Mon 08:54:58 PM 31.3317 -95.0761 41° Northeast 484 557 35,000  Level Fort Worth Center
Mon 08:55:58 PM 31.4319 -94.9739 40° Northeast 477 549 35,000  Level Fort Worth Center
Mon 08:56:58 PM 31.5322 -94.8736 40° Northeast 477 549 35,000  Level Fort Worth Center
Mon 08:57:58 PM 31.6325 -94.7733 40° Northeast 472 543 35,000  Level Fort Worth Center
Mon 08:58:58 PM 31.7286 -94.6778 42° Northeast 467 537 35,000  Level Fort Worth Center
Mon 08:59:58 PM 31.8225 -94.5797 57° Northeast 454 522 35,000  Level Fort Worth Center
Mon 09:00:58 PM 31.8906 -94.4553 64° Northeast 448 516 35,000  Level Fort Worth Center
Mon 09:01:58 PM 31.9458 -94.3189 65° Northeast 448 516 35,000  Level Fort Worth Center
Mon 09:02:58 PM 31.9989 -94.1847 65° Northeast 448 516 35,000  Level Fort Worth Center
Mon 09:03:58 PM 32.0556 -94.0431 65° Northeast 458 527 35,000  Level Fort Worth Center
Mon 09:04:58 PM 32.1103 -93.9036 65° Northeast 463 533 35,000  Level Fort Worth Center
Mon 09:05:58 PM 32.1667 -93.7617 67° East 468 539 35,000 500 Level Fort Worth Center
Mon 09:06:58 PM 32.2189 -93.6172 65° Northeast 468 539 36,000 1,000 Climbing Fort Worth Center
Mon 09:07:58 PM 32.2614 -93.5097 65° Northeast 460 529 37,000 500 Climbing Fort Worth Center
Mon 09:08:58 PM 32.3250 -93.3447 65° Northeast 455 524 37,000  Level Fort Worth Center
Mon 09:09:58 PM 32.3792 -93.2069 66° East 454 522 37,000  Level Fort Worth Center
Mon 09:10:58 PM 32.4325 -93.0644 64° Northeast 454 522 37,000  Level Fort Worth Center
Mon 09:11:58 PM 32.4903 -92.9236 65° Northeast 460 529 37,000  Level Fort Worth Center
Mon 09:12:58 PM 32.5475 -92.7753 66° East 470 541 37,000  Level Fort Worth Center
Mon 09:13:58 PM 32.6025 -92.6297 66° East 475 547 37,000 350 Level Fort Worth Center
Mon 09:14:58 PM 32.6575 -92.4861 65° Northeast 475 547 37,700 700 Climbing Fort Worth Center
Mon 09:15:58 PM 32.7144 -92.3397 66° East 475 547 38,400 411 Climbing Fort Worth Center
Mon 09:18:08 PM 32.8278 -92.0311 67° East 487 560 39,000 189 Climbing Memphis Center
Mon 09:19:08 PM 32.8797 -91.8836 66° East 487 560 39,000  Level Memphis Center
Mon 09:20:08 PM 32.9358 -91.7361 65° Northeast 487 560 39,000  Level Memphis Center
Mon 09:21:08 PM 32.9936 -91.5908 68° East 487 560 39,000  Level Memphis Center
Mon 09:22:08 PM 33.0453 -91.4378 66° East 487 560 39,000  Level Memphis Center
Mon 09:23:08 PM 33.0986 -91.2947 66° East 477 549 39,000  Level Memphis Center
Mon 09:24:08 PM 33.1539 -91.1439 67° East 477 549 39,000  Level Memphis Center
Mon 09:25:08 PM 33.2069 -90.9953 67° East 477 549 39,000  Level Memphis Center
Mon 09:26:08 PM 33.2597 -90.8467 65° Northeast 477 549 39,000  Level Memphis Center
Mon 09:27:08 PM 33.3164 -90.6978 67° East 482 555 39,000  Level Memphis Center
Mon 09:28:08 PM 33.3689 -90.5486 66° East 482 555 39,000  Level Memphis Center
Mon 09:29:08 PM 33.4256 -90.3969 66° East 482 555 39,000  Level Memphis Center
Mon 09:30:08 PM 33.4797 -90.2475 66° East 482 555 39,000  Level Memphis Center
Mon 09:31:08 PM 33.5358 -90.0956 66° East 482 555 39,000  Level Memphis Center
Mon 09:32:08 PM 33.5917 -89.9458 67° East 482 555 39,000  Level Memphis Center
Mon 09:33:08 PM 33.6456 -89.7958 65° Northeast 482 555 39,000  Level Memphis Center
Mon 09:34:08 PM 33.7053 -89.6431 66° East 482 555 39,000  Level Memphis Center
Mon 09:35:08 PM 33.7606 -89.4903 66° East 482 555 39,000  Level Memphis Center
Mon 09:36:08 PM 33.8178 -89.3369 68° East 482 555 39,000  Level Memphis Center
Mon 09:37:08 PM 33.8708 -89.1814 65° Northeast 494 568 39,000  Level Memphis Center
Mon 09:38:08 PM 33.9278 -89.0328 60° Northeast 494 568 39,000  Level Memphis Center
Mon 09:39:08 PM 33.9889 -88.9067 46° Northeast 494 568 39,000  Level Memphis Center
Mon 09:40:08 PM 34.0833 -88.7872 52° Northeast 488 562 39,000  Level Memphis Center
Mon 09:41:08 PM 34.1694 -88.6550 52° Northeast 483 556 39,000  Level Memphis Center
Mon 09:42:08 PM 34.2531 -88.5253 50° Northeast 488 562 39,000  Level Memphis Center
Mon 09:43:08 PM 34.3511 -88.3847 32° Northeast 488 562 39,000  Level Memphis Center
Mon 09:45:08 PM 34.5756 -88.2156 North 475 547 39,000  Level Memphis Center
Mon 09:46:08 PM 34.7047 -88.2022 North 457 526 39,000  Level Memphis Center
Mon 09:47:08 PM 34.8214 -88.1842 North 462 532 39,000  Level Memphis Center
Mon 09:48:08 PM 34.9650 -88.1600 North 467 537 39,000  Level Memphis Center
Mon 09:51:08 PM 35.3458 -88.1144 North 474 545 39,000  Level Memphis Center
Mon 09:52:08 PM 35.4914 -88.0978 North 469 540 39,000  Level Memphis Center
Mon 09:53:08 PM 35.6206 -88.0814 North 469 540 39,000  Level Memphis Center
Mon 09:54:08 PM 35.7536 -88.0625 North 469 540 39,000  Level Memphis Center
Mon 09:55:08 PM 35.8847 -88.0433 North 479 551 39,000  Level Memphis Center
Mon 09:56:08 PM 36.0200 -88.0267 North 479 551 39,000  Level Memphis Center
Mon 09:57:08 PM 36.1383 -88.0106 North 479 551 39,000  Level Memphis Center
Mon 09:58:08 PM 36.2694 -87.9939 North 479 551 39,000  Level Memphis Center
Mon 09:59:08 PM 36.4044 -87.9719 North 479 551 39,000  Level Memphis Center
Mon 10:00:08 PM 36.5356 -87.9578 North 479 551 39,000  Level Memphis Center
Mon 10:01:08 PM 36.6789 -87.9353 North 479 551 39,000  Level Memphis Center
Mon 10:02:08 PM 36.8142 -87.9183 North 484 557 39,000  Level Memphis Center
Mon 10:04:16 PM 37.0997 -87.8797 North 490 564 39,000  Level Indianapolis Center
Mon 10:05:16 PM 37.2192 -87.8631 North 485 558 39,000  Level Indianapolis Center
Mon 10:06:16 PM 37.3533 -87.8447 North 485 558 39,000  Level Indianapolis Center
Mon 10:07:16 PM 37.4875 -87.8264 North 485 558 39,000  Level Indianapolis Center
Mon 10:08:16 PM 37.6239 -87.8078 North 485 558 39,000  Level Indianapolis Center
Mon 10:09:16 PM 37.7581 -87.7892 North 485 558 39,000  Level Indianapolis Center
Mon 10:10:16 PM 37.8925 -87.7656 22° Northeast 480 552 39,000  Level Indianapolis Center
Mon 10:11:16 PM 38.0200 -87.7014 30° Northeast 485 558 39,000  Level Indianapolis Center
Mon 10:12:16 PM 38.1464 -87.6083 29° Northeast 491 565 39,000  Level Indianapolis Center
Mon 10:13:16 PM 38.2703 -87.5197 30° Northeast 504 580 39,000  Level Indianapolis Center
Mon 10:14:16 PM 38.3964 -87.4286 30° Northeast 516 594 39,000  Level Indianapolis Center
Mon 10:15:16 PM 38.5225 -87.3372 30° Northeast 521 600 39,000  Level Indianapolis Center
Mon 10:16:16 PM 38.6464 -87.2453 30° Northeast 521 600 39,000  Level Indianapolis Center
Mon 10:17:16 PM 38.7831 -87.1431 29° Northeast 516 594 39,000  Level Indianapolis Center
Mon 10:18:16 PM 38.9086 -87.0531 30° Northeast 516 594 39,000  Level Indianapolis Center
Mon 10:19:16 PM 39.0344 -86.9578 31° Northeast 516 594 39,000  Level Indianapolis Center
Mon 10:20:16 PM 39.1542 -86.8642 30° Northeast 516 594 39,000  Level Indianapolis Center
Mon 10:21:16 PM 39.2819 -86.7683 30° Northeast 510 587 39,000 -250 Level Indianapolis Center
Mon 10:22:16 PM 39.3944 -86.6847 29° Northeast 515 593 38,500 -1,041 Descending Indianapolis Center
Mon 10:24:32 PM 39.6956 -86.4658 33° Northeast 516 594 35,600 -1,255 Descending Chicago Center
Mon 10:25:32 PM 39.8242 -86.3575 36° Northeast 526 605 34,400 -1,100 Descending Chicago Center
Mon 10:26:32 PM 39.9297 -86.2581 38° Northeast 531 611 33,400 -700 Descending Chicago Center
Mon 10:27:32 PM 40.0414 -86.1444 37° Northeast 526 605 33,000 -200 Descending Chicago Center
Mon 10:28:32 PM 40.1569 -86.0303 37° Northeast 520 598 33,000  Level Chicago Center
Mon 10:29:32 PM 40.2725 -85.9156 38° Northeast 526 605 33,000 -150 Level Chicago Center
Mon 10:30:32 PM 40.3917 -85.7922 38° Northeast 526 605 32,700 -1,000 Descending Chicago Center
Mon 10:31:32 PM 40.5128 -85.6683 38° Northeast 521 600 31,000 -1,700 Descending Chicago Center
Mon 10:32:32 PM 40.6239 -85.5553 37° Northeast 516 594 29,300 -1,800 Descending Chicago Center
Mon 10:33:32 PM 40.7367 -85.4419 37° Northeast 506 582 27,400 -1,850 Descending Chicago Center
Mon 10:34:32 PM 40.8433 -85.3342 40° Northeast 501 577 25,600 -1,803 Descending Chicago Center
Mon 10:36:35 PM 41.0533 -85.1022 40° Northeast 491 565 21,900 -1,508 Descending Cleveland Center
Mon 10:37:35 PM 41.1622 -84.9800 39° Northeast 468 539 21,000 -450 Descending Cleveland Center
Mon 10:38:35 PM 41.2622 -84.8736 39° Northeast 463 533 21,000  Level Cleveland Center
Mon 10:39:35 PM 41.3689 -84.7589 49° Northeast 470 541 21,000 -50 Level Cleveland Center
Mon 10:40:35 PM 41.4550 -84.6258 50° Northeast 470 541 20,900 -1,050 Descending Cleveland Center
Mon 10:41:35 PM 41.5431 -84.4869 51° Northeast 480 552 18,900 -2,100 Descending Cleveland Center
Mon 10:42:35 PM 41.6203 -84.3611 48° Northeast 459 528 16,700 -2,124 Descending Cleveland Center
Mon 10:43:28 PM 41.6928 -84.2542 49° Northeast 432 497 14,900 -2,019 Descending Cleveland Center
Mon 10:44:22 PM 41.7628 -84.1467 52° Northeast 420 483 13,100 -1,513 Descending Cleveland Center
Mon 10:45:23 PM 41.8333 -84.0250 48° Northeast 412 474 12,000 -541 Descending Cleveland Center
Mon 10:46:24 PM 41.9117 -83.9094 46° Northeast 416 479 12,000  Level Cleveland Center
Mon 10:47:24 PM 41.9900 -83.7989 46° Northeast 419 482 12,000 -137 Level Cleveland Center
Mon 10:48:35 PM 42.0744 -83.6800 43° Northeast 409 471 11,700 -368 Descending Cleveland Center
Mon 10:49:18 PM 42.1297 -83.6094 36° Northeast 341 392 11,300 -1,000 Descending FAA TRACON SMA TRACON (SMA)
Mon 10:49:59 PM 42.1783 -83.5622 25° Northeast 310 357 10,300 -1,500 Descending FAA TRACON SMA TRACON (SMA)
Mon 10:50:38 PM 42.2292 -83.5306 24° Northeast 304 350 9,300 -1,519 Descending FAA TRACON SMA TRACON (SMA)
Mon 10:51:18 PM 42.2808 -83.4994 23° Northeast 294 338 8,300 -1,481 Descending FAA TRACON SMA TRACON (SMA)
Mon 10:51:59 PM 42.3297 -83.4711 23° Northeast 287 330 7,300 -1,630 Descending FAA TRACON SMA TRACON (SMA)
Mon 10:52:39 PM 42.3750 -83.4450 23° Northeast 280 322 6,100 -1,823 Descending FAA TRACON SMA TRACON (SMA)
Mon 10:53:18 PM 42.4231 -83.4172 68° East 276 318 4,900 -1,823 Descending FAA TRACON SMA TRACON (SMA)
Mon 10:53:58 PM 42.4397 -83.3603 113° Southeast 257 296 3,700 -1,407 Descending FAA TRACON SMA TRACON (SMA)
Mon 10:54:39 PM 42.4222 -83.3036 113° Southeast 256 295 3,000 -519 Descending FAA TRACON SMA TRACON (SMA)
Mon 10:55:19 PM 42.4047 -83.2481 164° South 221 254 3,000  Level FAA TRACON SMA TRACON (SMA)
Mon 10:55:58 PM 42.3689 -83.2344 196° South 211 243 3,000  Level FAA TRACON SMA TRACON (SMA)
Mon 10:56:39 PM 42.3328 -83.2486 211° Southwest 206 237 3,000 -370 Level FAA TRACON SMA TRACON (SMA)
Mon 10:57:19 PM 42.3008 -83.2747 211° Southwest 198 228 2,500 -750 Descending FAA TRACON SMA TRACON (SMA)

Login

Don't have an account? Register now (free) for customized features, flight alerts, and more!